Weather at Kurray Airport

Public forecast

Using degrees Celsius for public forecast. Weather courtesy of forecast.io.

Closest aviation weather report (METAR) to Kurray Airport

Closest report is Moree Airport, 101.7 nm (188.3 km) SE. Retrieved 2021/06/20 09:00 UTC (15 minutes ago):

YMOR 200900Z AUTO 19009KT 9999 // SCT055 12/08 Q1020

Closest aviation forecast (TAF) to Kurray Airport

Forecast is more than 6 hours old.

Closest forecast is Brisbane West Wellcamp Airport, 175.2 nm (324.4 km) ENE. Retrieved 2021-06-20 00:00 UTC (9 hours ago):

TAF YBWW 192305Z 2000/2018 21007KT 9999 SCT040 FM200900 15005KT CAVOK